Time;durP1;ratioP1;P1;durP2;ratioP2;P2;SDS_P1;SDS_P2;PMS_P1;PMS_P2;Temp;Humidity;BMP_temperature;BMP_pressure;BME280_temperature;BME280_humidity;BME280_pressure;Samples;Min_cycle;Max_cycle;Signal;HPM_P1;HPM_P2
2022/02/06 00:01:25;;;;;;;6.07;2.45;;;;;;;;;;5056004;28;20177;-82
2022/02/06 00:03:57;;;;;;;2.75;2.08;;;;;;;;;;5039389;28;20213;-80
2022/02/06 00:06:23;;;;;;;5.40;2.70;;;;;;;;;;5051363;28;20265;-79
2022/02/06 00:08:49;;;;;;;7.38;2.35;;;;;;;;;;5040865;28;20190;-79
2022/02/06 00:11:15;;;;;;;7.45;2.40;;;;;;;;;;5054176;28;20216;-77
2022/02/06 00:13:41;;;;;;;9.70;2.50;;;;;;;;;;5041395;28;20177;-81
2022/02/06 00:16:08;;;;;;;4.57;1.73;;;;;;;;;;5040368;28;20654;-79
2022/02/06 00:18:34;;;;;;;9.07;2.60;;;;;;;;;;5042180;28;20458;-78
2022/02/06 00:21:06;;;;;;;4.65;1.95;;;;;;;;;;5066457;28;20193;-79
2022/02/06 00:23:33;;;;;;;7.78;2.15;;;;;;;;;;5045659;28;20197;-79
2022/02/06 00:26:18;;;;;;;10.00;3.22;;;;;;;;;;5045764;28;20176;-79
2022/02/06 00:28:57;;;;;;;8.52;2.47;;;;;;;;;;5048722;28;20176;-80
2022/02/06 00:31:34;;;;;;;8.27;3.28;;;;;;;;;;5058134;28;20669;-79
2022/02/06 00:39:13;;;;;;;8.23;2.00;;;;;;;;;;5060856;28;20764;-79
2022/02/06 00:41:39;;;;;;;3.83;3.05;;;;;;;;;;5054573;28;20185;-78
2022/02/06 00:44:06;;;;;;;8.07;2.67;;;;;;;;;;5058813;28;20183;-78
2022/02/06 00:46:35;;;;;;;8.13;2.55;;;;;;;;;;5029874;28;20257;-78
2022/02/06 00:49:10;;;;;;;14.48;2.75;;;;;;;;;;5051689;28;20272;-77
2022/02/06 00:51:55;;;;;;;4.88;2.42;;;;;;;;;;5050654;28;20178;-78
2022/02/06 00:54:21;;;;;;;10.10;2.08;;;;;;;;;;5052952;28;20185;-78
2022/02/06 00:56:47;;;;;;;4.82;2.22;;;;;;;;;;5059208;28;20189;-79
2022/02/06 00:59:13;;;;;;;10.35;1.88;;;;;;;;;;5059270;28;20205;-79
2022/02/06 01:01:42;;;;;;;4.72;2.35;;;;;;;;;;5044805;28;20542;-80
2022/02/06 01:04:09;;;;;;;5.22;2.10;;;;;;;;;;5051236;28;20186;-78
2022/02/06 01:06:35;;;;;;;7.63;2.00;;;;;;;;;;5052660;28;20185;-80
2022/02/06 01:09:02;;;;;;;9.57;2.35;;;;;;;;;;5047459;28;20473;-80
2022/02/06 01:11:29;;;;;;;6.53;2.58;;;;;;;;;;5061970;28;20203;-80
2022/02/06 01:16:47;;;;;;;5.22;2.17;;;;;;;;;;5050384;28;20424;-78
2022/02/06 01:19:19;;;;;;;8.77;3.55;;;;;;;;;;5064211;28;20197;-77
2022/02/06 01:21:59;;;;;;;6.68;2.85;;;;;;;;;;5042278;28;20244;-79
2022/02/06 01:27:18;;;;;;;2.63;2.00;;;;;;;;;;5058320;28;20239;-81
2022/02/06 01:32:20;;;;;;;11.30;3.50;;;;;;;;;;5059396;28;20244;-80
2022/02/06 01:34:55;;;;;;;2.50;1.67;;;;;;;;;;5062053;28;20165;-82
2022/02/06 01:37:48;;;;;;;3.08;1.40;;;;;;;;;;5063441;28;20180;-80
2022/02/06 01:42:59;;;;;;;4.82;2.08;;;;;;;;;;5015214;28;20199;-78
2022/02/06 01:45:34;;;;;;;8.15;3.13;;;;;;;;;;5025433;28;20564;-78
2022/02/06 02:01:59;;;;;;;2.92;1.60;;;;;;;;;;5010393;28;20185;-78
2022/02/06 02:12:23;;;;;;;5.15;1.80;;;;;;;;;;5020904;28;20225;-83
2022/02/06 02:17:39;;;;;;;4.65;1.52;;;;;;;;;;5007025;28;20205;-81
2022/02/06 02:46:35;;;;;;;6.75;1.83;;;;;;;;;;5048158;28;20200;-78
2022/02/06 02:49:02;;;;;;;3.30;1.50;;;;;;;;;;5051767;28;20316;-79
2022/02/06 02:51:34;;;;;;;5.57;2.30;;;;;;;;;;5051534;28;20264;-80
2022/02/06 02:54:06;;;;;;;8.63;1.80;;;;;;;;;;5051159;28;20186;-79
2022/02/06 02:59:46;;;;;;;7.45;2.00;;;;;;;;;;5070061;28;20216;-77
2022/02/06 03:01:57;;;;;;;4.93;1.90;;;;;;;;;;5056519;28;20517;-79
2022/02/06 03:04:23;;;;;;;6.30;2.03;;;;;;;;;;5045248;28;20627;-78
2022/02/06 03:06:49;;;;;;;3.10;1.42;;;;;;;;;;5040178;28;20181;-79
2022/02/06 03:09:17;;;;;;;7.97;1.95;;;;;;;;;;5058407;28;20252;-80
2022/02/06 03:11:43;;;;;;;6.05;1.52;;;;;;;;;;5060364;28;20185;-79
2022/02/06 03:14:25;;;;;;;6.05;1.50;;;;;;;;;;5045398;28;20181;-82
2022/02/06 03:17:01;;;;;;;5.18;1.40;;;;;;;;;;5042899;28;20177;-79
2022/02/06 03:19:29;;;;;;;2.53;1.75;;;;;;;;;;5044196;28;20204;-81
2022/02/06 03:21:55;;;;;;;2.55;1.38;;;;;;;;;;5057497;28;20181;-80
2022/02/06 03:24:26;;;;;;;5.60;2.13;;;;;;;;;;5058948;28;20900;-80
2022/02/06 03:26:53;;;;;;;6.75;2.17;;;;;;;;;;5039700;28;20509;-78
2022/02/06 03:29:20;;;;;;;6.15;2.13;;;;;;;;;;5043070;28;20533;-79
2022/02/06 03:31:48;;;;;;;2.90;2.15;;;;;;;;;;5048271;28;20174;-79
2022/02/06 03:34:15;;;;;;;2.13;1.55;;;;;;;;;;5054332;28;20190;-81
2022/02/06 03:36:41;;;;;;;4.68;2.17;;;;;;;;;;5041110;28;20240;-80
2022/02/06 03:39:08;;;;;;;2.72;1.25;;;;;;;;;;5048671;28;20292;-83
2022/02/06 03:42:41;;;;;;;7.43;1.98;;;;;;;;;;5056165;28;20185;-81
2022/02/06 03:44:53;;;;;;;6.25;1.73;;;;;;;;;;5034002;28;20184;-79
2022/02/06 03:47:21;;;;;;;6.35;2.20;;;;;;;;;;5042497;28;20248;-81
2022/02/06 03:50:00;;;;;;;2.08;1.83;;;;;;;;;;5046561;28;20172;-80
2022/02/06 03:52:47;;;;;;;2.28;2.00;;;;;;;;;;5045399;28;20177;-80
2022/02/06 03:55:19;;;;;;;2.88;1.30;;;;;;;;;;5044908;28;20670;-81
2022/02/06 03:57:49;;;;;;;4.65;1.58;;;;;;;;;;5048029;28;20196;-80
2022/02/06 04:00:16;;;;;;;2.03;1.60;;;;;;;;;;5046655;28;20244;-81
2022/02/06 04:02:42;;;;;;;4.35;1.98;;;;;;;;;;5041208;28;20217;-85
2022/02/06 04:05:08;;;;;;;6.00;2.42;;;;;;;;;;5053370;28;20185;-77
2022/02/06 04:07:34;;;;;;;3.25;1.77;;;;;;;;;;5058927;28;20665;-80
2022/02/06 04:10:00;;;;;;;3.77;1.80;;;;;;;;;;5053036;28;20188;-78
2022/02/06 04:12:27;;;;;;;4.15;1.95;;;;;;;;;;5050183;28;20439;-79
2022/02/06 04:14:56;;;;;;;5.07;1.98;;;;;;;;;;5044480;28;20200;-80
2022/02/06 04:17:25;;;;;;;2.63;1.67;;;;;;;;;;5062553;28;20181;-80
2022/02/06 04:19:52;;;;;;;3.92;1.50;;;;;;;;;;5063015;28;20211;-81
2022/02/06 04:22:18;;;;;;;6.72;1.58;;;;;;;;;;5061573;28;20188;-79
2022/02/06 04:24:44;;;;;;;6.25;2.00;;;;;;;;;;5045971;28;20192;-80
2022/02/06 04:27:10;;;;;;;3.90;2.13;;;;;;;;;;5043412;28;20181;-80
2022/02/06 04:29:36;;;;;;;4.18;1.80;;;;;;;;;;5071397;28;20212;-80
2022/02/06 04:32:07;;;;;;;3.15;1.10;;;;;;;;;;5031037;28;20169;-82
2022/02/06 04:34:33;;;;;;;7.60;2.00;;;;;;;;;;5066194;28;20181;-79
2022/02/06 04:37:14;;;;;;;4.07;2.08;;;;;;;;;;5042695;28;20276;-80
2022/02/06 04:43:20;;;;;;;2.83;1.45;;;;;;;;;;5059129;28;20244;-79
2022/02/06 05:30:36;;;;;;;3.63;1.98;;;;;;;;;;5057733;28;20205;-82
2022/02/06 05:33:03;;;;;;;3.72;1.25;;;;;;;;;;5069593;28;20592;-79
2022/02/06 05:35:29;;;;;;;1.80;1.33;;;;;;;;;;5045073;28;20276;-80
2022/02/06 05:37:55;;;;;;;2.03;1.58;;;;;;;;;;5046499;28;20539;-79
2022/02/06 05:40:21;;;;;;;6.25;1.80;;;;;;;;;;5040609;28;20215;-79
2022/02/06 05:42:47;;;;;;;6.05;1.73;;;;;;;;;;5038578;28;20181;-79
2022/02/06 05:45:13;;;;;;;2.47;1.57;;;;;;;;;;5053693;28;20267;-79
2022/02/06 05:47:39;;;;;;;2.83;1.70;;;;;;;;;;5074247;28;20897;-82
2022/02/06 05:50:05;;;;;;;3.90;1.60;;;;;;;;;;5057182;28;20177;-78
2022/02/06 05:52:31;;;;;;;3.65;1.40;;;;;;;;;;5036895;28;20428;-77
2022/02/06 05:54:58;;;;;;;2.97;1.50;;;;;;;;;;5048276;28;20189;-77
2022/02/06 05:57:24;;;;;;;3.28;1.40;;;;;;;;;;5041178;28;20315;-78
2022/02/06 05:59:50;;;;;;;2.97;1.70;;;;;;;;;;5042516;28;20213;-79
2022/02/06 06:02:17;;;;;;;3.97;1.65;;;;;;;;;;5052424;28;20235;-77
2022/02/06 06:04:43;;;;;;;4.60;1.80;;;;;;;;;;5043192;28;20166;-78
2022/02/06 06:07:09;;;;;;;2.60;1.30;;;;;;;;;;5068234;28;20188;-78
2022/02/06 06:09:35;;;;;;;2.80;1.75;;;;;;;;;;5059675;28;20459;-82
2022/02/06 06:12:01;;;;;;;3.13;1.50;;;;;;;;;;5050085;28;20634;-79
2022/02/06 06:14:29;;;;;;;1.88;1.33;;;;;;;;;;5045860;28;20193;-79
2022/02/06 06:16:56;;;;;;;2.88;1.00;;;;;;;;;;5051223;28;20239;-80
2022/02/06 06:19:22;;;;;;;2.83;1.15;;;;;;;;;;5049628;28;20206;-81
2022/02/06 06:21:53;;;;;;;1.98;1.13;;;;;;;;;;5056169;28;20251;-79
2022/02/06 06:24:21;;;;;;;2.70;1.38;;;;;;;;;;5053087;28;20181;-82
2022/02/06 06:26:47;;;;;;;2.50;2.00;;;;;;;;;;5046086;28;20182;-80
2022/02/06 06:29:13;;;;;;;3.43;1.27;;;;;;;;;;5044331;28;20212;-80
2022/02/06 06:31:39;;;;;;;3.28;1.27;;;;;;;;;;5044467;28;20432;-79
2022/02/06 06:34:05;;;;;;;5.30;1.60;;;;;;;;;;5046475;28;20215;-81
2022/02/06 06:36:33;;;;;;;2.55;1.20;;;;;;;;;;5040754;28;20474;-79
2022/02/06 06:39:00;;;;;;;4.38;1.77;;;;;;;;;;5043649;28;20292;-82
2022/02/06 06:41:26;;;;;;;6.40;1.55;;;;;;;;;;5044297;28;20182;-80
2022/02/06 06:43:52;;;;;;;3.17;1.50;;;;;;;;;;5075806;28;20182;-78
2022/02/06 06:46:18;;;;;;;5.00;1.50;;;;;;;;;;5049218;28;20417;-78
2022/02/06 06:48:44;;;;;;;3.92;1.45;;;;;;;;;;5044658;28;20262;-77
2022/02/06 06:51:10;;;;;;;2.60;1.60;;;;;;;;;;5042576;28;20192;-83
2022/02/06 06:53:39;;;;;;;5.95;1.83;;;;;;;;;;5049226;28;20181;-79
2022/02/06 06:56:12;;;;;;;5.53;1.85;;;;;;;;;;5028325;28;20172;-80
2022/02/06 06:58:43;;;;;;;3.92;1.40;;;;;;;;;;5056165;28;20210;-78
2022/02/06 07:03:54;;;;;;;2.72;1.30;;;;;;;;;;5051466;28;20192;-79
2022/02/06 07:06:20;;;;;;;2.97;1.27;;;;;;;;;;5047410;28;20213;-79
2022/02/06 07:08:46;;;;;;;6.18;2.15;;;;;;;;;;5044313;28;20261;-84
2022/02/06 07:11:12;;;;;;;5.50;1.70;;;;;;;;;;5060600;28;20207;-81
2022/02/06 07:13:38;;;;;;;3.17;1.42;;;;;;;;;;5042328;28;20425;-78
2022/02/06 07:16:06;;;;;;;6.68;1.52;;;;;;;;;;5051003;28;20198;-84
2022/02/06 07:18:32;;;;;;;6.05;1.30;;;;;;;;;;5048114;28;20185;-81
2022/02/06 07:20:58;;;;;;;4.43;1.55;;;;;;;;;;5063145;28;20258;-80
2022/02/06 07:23:24;;;;;;;3.30;1.63;;;;;;;;;;5043625;28;20190;-80
2022/02/06 07:25:53;;;;;;;4.93;1.80;;;;;;;;;;5057742;28;20169;-85
2022/02/06 07:28:20;;;;;;;6.20;1.70;;;;;;;;;;5058062;28;20177;-84
2022/02/06 07:30:46;;;;;;;4.55;1.52;;;;;;;;;;5040375;28;20623;-80
2022/02/06 07:33:14;;;;;;;6.35;1.30;;;;;;;;;;5048585;28;20196;-77
2022/02/06 07:35:40;;;;;;;8.45;1.90;;;;;;;;;;5061363;28;20720;-79
2022/02/06 07:38:07;;;;;;;3.22;1.40;;;;;;;;;;5027227;28;20251;-79
2022/02/06 07:40:34;;;;;;;2.30;1.10;;;;;;;;;;5054028;28;20200;-79
2022/02/06 07:43:00;;;;;;;3.00;1.65;;;;;;;;;;5057295;28;20642;-84
2022/02/06 07:45:26;;;;;;;4.40;1.42;;;;;;;;;;5054207;28;20436;-79
2022/02/06 07:47:52;;;;;;;1.80;1.63;;;;;;;;;;5047950;28;20189;-79
2022/02/06 07:50:19;;;;;;;2.28;1.38;;;;;;;;;;5042716;28;20178;-79
2022/02/06 07:52:45;;;;;;;2.67;1.20;;;;;;;;;;5059210;28;20181;-79
2022/02/06 07:55:11;;;;;;;2.90;1.25;;;;;;;;;;5051671;28;20193;-81
2022/02/06 07:57:40;;;;;;;3.15;1.33;;;;;;;;;;5051683;28;20219;-81
2022/02/06 08:00:07;;;;;;;3.25;1.40;;;;;;;;;;5050173;28;20201;-81
2022/02/06 08:02:33;;;;;;;3.28;1.30;;;;;;;;;;5057682;28;20177;-81
2022/02/06 08:04:59;;;;;;;5.35;1.52;;;;;;;;;;5032180;28;20165;-84
2022/02/06 08:07:26;;;;;;;1.98;1.30;;;;;;;;;;5031714;28;20249;-83
2022/02/06 08:09:57;;;;;;;2.55;1.55;;;;;;;;;;5036576;28;20190;-83
2022/02/06 08:12:40;;;;;;;4.18;1.40;;;;;;;;;;5050719;28;20200;-84
2022/02/06 08:15:06;;;;;;;6.07;1.70;;;;;;;;;;5038354;28;20257;-79
2022/02/06 08:17:36;;;;;;;2.85;1.20;;;;;;;;;;5050361;28;20189;-81
2022/02/06 08:20:04;;;;;;;3.13;1.00;;;;;;;;;;5055175;28;20221;-81
2022/02/06 08:22:30;;;;;;;6.13;1.55;;;;;;;;;;5040883;28;20185;-81
2022/02/06 08:24:56;;;;;;;4.45;2.30;;;;;;;;;;5041239;28;20335;-82
2022/02/06 08:27:23;;;;;;;3.78;1.33;;;;;;;;;;5037244;28;20204;-81
2022/02/06 08:29:49;;;;;;;6.57;1.23;;;;;;;;;;5054430;28;20185;-86
2022/02/06 08:32:16;;;;;;;1.85;1.45;;;;;;;;;;5055197;28;20182;-83
2022/02/06 08:34:42;;;;;;;2.25;1.20;;;;;;;;;;5043057;28;20193;-87
2022/02/06 08:37:09;;;;;;;3.15;1.55;;;;;;;;;;5041556;28;20193;-84
2022/02/06 08:39:36;;;;;;;4.10;1.17;;;;;;;;;;5056189;28;20240;-83
2022/02/06 08:42:04;;;;;;;2.90;0.93;;;;;;;;;;5050731;28;20186;-85
2022/02/06 08:44:30;;;;;;;3.03;1.40;;;;;;;;;;5049971;28;20170;-86
2022/02/06 08:46:56;;;;;;;4.07;1.33;;;;;;;;;;5042029;28;20169;-86
2022/02/06 08:49:23;;;;;;;2.83;1.45;;;;;;;;;;5057873;28;20173;-83
2022/02/06 08:51:49;;;;;;;7.47;2.35;;;;;;;;;;5041663;28;20189;-85
2022/02/06 08:54:15;;;;;;;4.72;1.75;;;;;;;;;;5040138;28;20713;-84
2022/02/06 08:56:41;;;;;;;4.28;1.52;;;;;;;;;;5040541;28;20654;-83
2022/02/06 08:59:08;;;;;;;4.15;1.40;;;;;;;;;;5055947;28;20244;-82
2022/02/06 09:01:34;;;;;;;3.03;1.17;;;;;;;;;;5047113;28;20190;-82
2022/02/06 09:04:00;;;;;;;1.50;1.40;;;;;;;;;;5056102;28;20212;-87
2022/02/06 09:06:27;;;;;;;2.17;1.30;;;;;;;;;;5059742;28;20605;-85
2022/02/06 09:08:56;;;;;;;2.88;1.10;;;;;;;;;;5044537;28;20681;-82
2022/02/06 09:11:23;;;;;;;2.30;1.45;;;;;;;;;;5049882;28;20189;-83
2022/02/06 09:13:49;;;;;;;2.83;1.17;;;;;;;;;;5044280;28;20173;-85
2022/02/06 09:16:15;;;;;;;2.20;1.00;;;;;;;;;;5060501;28;20237;-82
2022/02/06 09:18:41;;;;;;;2.80;1.35;;;;;;;;;;5051038;28;20204;-88
2022/02/06 09:21:07;;;;;;;3.60;1.23;;;;;;;;;;5054243;28;20193;-88
2022/02/06 09:23:33;;;;;;;2.30;1.90;;;;;;;;;;5047334;28;20185;-87
2022/02/06 09:25:59;;;;;;;2.27;0.97;;;;;;;;;;5047536;28;20529;-83
2022/02/06 09:28:25;;;;;;;3.20;1.33;;;;;;;;;;5050776;28;20419;-83
2022/02/06 09:30:51;;;;;;;2.85;1.45;;;;;;;;;;5060559;28;20916;-87
2022/02/06 09:35:43;;;;;;;2.03;1.00;;;;;;;;;;5054436;28;20485;-80
2022/02/06 09:38:09;;;;;;;1.55;0.90;;;;;;;;;;5035863;28;20217;-81
2022/02/06 09:40:37;;;;;;;3.33;1.40;;;;;;;;;;5044107;28;20200;-80
2022/02/06 09:43:03;;;;;;;3.20;1.23;;;;;;;;;;5059851;28;20181;-85
2022/02/06 09:45:30;;;;;;;1.88;1.38;;;;;;;;;;5055936;28;20178;-81
2022/02/06 09:47:57;;;;;;;1.40;0.80;;;;;;;;;;5046142;28;20182;-84
2022/02/06 09:50:23;;;;;;;1.38;1.02;;;;;;;;;;5077721;28;20185;-87
2022/02/06 09:52:49;;;;;;;3.97;1.13;;;;;;;;;;5043638;28;20181;-87
2022/02/06 09:55:18;;;;;;;3.38;0.80;;;;;;;;;;5033128;28;20196;-83
2022/02/06 09:57:53;;;;;;;1.85;1.10;;;;;;;;;;5036236;28;20197;-85
2022/02/06 10:00:26;;;;;;;1.70;0.90;;;;;;;;;;5045599;28;20225;-85
2022/02/06 10:02:53;;;;;;;3.72;1.42;;;;;;;;;;5040220;28;20244;-86
2022/02/06 10:05:20;;;;;;;4.63;0.80;;;;;;;;;;5063470;28;20192;-82
2022/02/06 10:07:53;;;;;;;3.97;0.95;;;;;;;;;;5034626;28;20280;-85
2022/02/06 10:10:20;;;;;;;4.38;1.50;;;;;;;;;;5030572;28;20185;-86
2022/02/06 10:12:46;;;;;;;3.88;0.85;;;;;;;;;;5053543;28;20213;-89
2022/02/06 10:15:16;;;;;;;2.30;1.20;;;;;;;;;;5041654;28;20185;-83
2022/02/06 10:17:42;;;;;;;2.72;1.80;;;;;;;;;;5047017;28;20797;-88
2022/02/06 10:20:32;;;;;;;2.35;1.10;;;;;;;;;;5043547;28;20553;-85
2022/02/06 10:23:01;;;;;;;3.42;1.30;;;;;;;;;;5045161;28;20173;-86
2022/02/06 10:25:28;;;;;;;2.55;0.90;;;;;;;;;;5041734;28;20170;-82
2022/02/06 10:28:01;;;;;;;2.70;2.00;;;;;;;;;;5048479;28;20190;-91
2022/02/06 10:30:37;;;;;;;1.60;1.10;;;;;;;;;;5049009;28;20193;-84
2022/02/06 10:33:03;;;;;;;4.20;1.45;;;;;;;;;;5048484;28;20181;-88
2022/02/06 10:35:34;;;;;;;3.67;1.23;;;;;;;;;;5064186;28;20260;-86
2022/02/06 10:38:02;;;;;;;3.80;1.85;;;;;;;;;;5029823;28;20214;-87
2022/02/06 10:40:28;;;;;;;3.15;1.75;;;;;;;;;;5048389;28;20198;-85
2022/02/06 10:42:54;;;;;;;5.90;2.60;;;;;;;;;;5032584;28;20174;-85
2022/02/06 10:45:21;;;;;;;3.70;3.10;;;;;;;;;;5033355;28;20189;-87
2022/02/06 10:47:52;;;;;;;4.97;2.10;;;;;;;;;;5050278;28;20181;-89
2022/02/06 10:50:19;;;;;;;3.53;2.13;;;;;;;;;;5043891;28;20185;-87
2022/02/06 10:52:46;;;;;;;7.13;1.95;;;;;;;;;;5057419;28;20191;-88
2022/02/06 10:55:15;;;;;;;7.43;1.90;;;;;;;;;;5062400;28;20195;-88
2022/02/06 10:57:53;;;;;;;5.47;3.13;;;;;;;;;;5049968;28;20192;-86
2022/02/06 11:00:25;;;;;;;4.90;2.10;;;;;;;;;;5041961;28;20197;-89
2022/02/06 11:03:09;;;;;;;8.00;2.92;;;;;;;;;;5048308;28;20185;-86
2022/02/06 11:05:46;;;;;;;3.92;1.50;;;;;;;;;;5046211;28;20251;-83
2022/02/06 11:08:12;;;;;;;4.28;1.80;;;;;;;;;;5027997;28;20195;-84
2022/02/06 11:10:38;;;;;;;7.65;2.33;;;;;;;;;;5059964;28;20240;-83
2022/02/06 11:13:05;;;;;;;5.82;1.60;;;;;;;;;;5050125;28;20273;-84
2022/02/06 11:15:41;;;;;;;7.50;2.53;;;;;;;;;;5047202;28;20269;-85
2022/02/06 11:18:18;;;;;;;7.70;2.17;;;;;;;;;;5047698;28;20192;-85
2022/02/06 11:20:56;;;;;;;6.15;2.50;;;;;;;;;;5055467;28;20208;-83
2022/02/06 11:23:23;;;;;;;9.85;3.05;;;;;;;;;;5045421;28;20202;-84
2022/02/06 11:25:50;;;;;;;6.13;3.83;;;;;;;;;;5029051;28;20184;-84
2022/02/06 11:28:17;;;;;;;4.88;2.25;;;;;;;;;;5032365;28;20200;-87
2022/02/06 11:30:43;;;;;;;4.90;2.00;;;;;;;;;;5051384;28;20192;-86
2022/02/06 11:33:09;;;;;;;3.85;1.77;;;;;;;;;;5035438;28;20189;-85
2022/02/06 11:35:38;;;;;;;2.80;2.25;;;;;;;;;;5054385;28;20185;-86
2022/02/06 11:44:00;;;;;;;3.72;1.52;;;;;;;;;;5048481;28;20189;-83
2022/02/06 11:46:45;;;;;;;6.03;3.53;;;;;;;;;;5053381;28;20169;-85
2022/02/06 11:49:13;;;;;;;3.75;1.98;;;;;;;;;;5057893;28;20196;-87
2022/02/06 11:51:56;;;;;;;4.35;1.65;;;;;;;;;;5056489;28;20224;-85
2022/02/06 11:54:28;;;;;;;2.97;1.42;;;;;;;;;;5032813;28;20662;-86
2022/02/06 11:57:16;;;;;;;10.90;4.65;;;;;;;;;;5032143;28;20216;-83
2022/02/06 11:59:42;;;;;;;6.05;3.88;;;;;;;;;;5051511;28;20193;-85
2022/02/06 12:02:28;;;;;;;9.57;2.60;;;;;;;;;;5027896;28;20271;-85
2022/02/06 12:05:20;;;;;;;3.53;2.20;;;;;;;;;;5052605;28;20185;-81
2022/02/06 12:07:53;;;;;;;4.28;2.53;;;;;;;;;;5035671;28;20257;-85
2022/02/06 12:10:20;;;;;;;5.88;3.35;;;;;;;;;;5055972;28;20180;-87
2022/02/06 12:12:49;;;;;;;7.57;4.20;;;;;;;;;;5048063;28;20674;-83
2022/02/06 12:15:27;;;;;;;3.97;2.10;;;;;;;;;;5039962;28;20244;-85
2022/02/06 12:18:10;;;;;;;3.70;2.35;;;;;;;;;;5045475;28;20188;-84
2022/02/06 12:20:49;;;;;;;4.72;2.50;;;;;;;;;;5054089;28;20235;-87
2022/02/06 12:23:42;;;;;;;6.43;2.53;;;;;;;;;;5042509;28;20201;-83
2022/02/06 12:26:32;;;;;;;3.38;1.70;;;;;;;;;;4964027;28;20208;-83
2022/02/06 12:28:59;;;;;;;3.50;2.22;;;;;;;;;;4978903;28;20192;-83
2022/02/06 12:31:33;;;;;;;3.35;2.45;;;;;;;;;;4966072;28;20268;-83
2022/02/06 12:39:23;;;;;;;2.30;1.73;;;;;;;;;;4983075;28;20262;-83
2022/02/06 12:41:49;;;;;;;3.25;1.83;;;;;;;;;;4973728;28;20194;-81
2022/02/06 12:44:16;;;;;;;3.50;1.60;;;;;;;;;;4983554;28;20200;-87
2022/02/06 12:46:44;;;;;;;5.32;2.03;;;;;;;;;;4985699;28;20211;-84
2022/02/06 12:49:10;;;;;;;11.05;2.38;;;;;;;;;;4966449;28;20211;-85
2022/02/06 12:51:36;;;;;;;3.35;2.10;;;;;;;;;;4967496;28;20195;-84
2022/02/06 12:54:08;;;;;;;6.47;3.25;;;;;;;;;;4983852;28;20184;-86
2022/02/06 12:56:35;;;;;;;3.08;2.20;;;;;;;;;;4983446;28;20197;-88
2022/02/06 12:59:01;;;;;;;5.53;2.13;;;;;;;;;;4969277;28;20715;-89
2022/02/06 13:01:37;;;;;;;4.72;2.67;;;;;;;;;;4972942;28;20179;-88
2022/02/06 13:04:04;;;;;;;3.60;2.13;;;;;;;;;;5040858;28;20197;-85
2022/02/06 13:06:37;;;;;;;2.08;1.88;;;;;;;;;;5052346;28;20182;-87
2022/02/06 13:09:12;;;;;;;2.90;1.80;;;;;;;;;;5042633;28;20598;-86
2022/02/06 13:11:52;;;;;;;2.38;1.73;;;;;;;;;;5044501;28;20184;-86
2022/02/06 13:14:33;;;;;;;2.05;1.65;;;;;;;;;;5031714;28;20173;-88
2022/02/06 13:17:17;;;;;;;4.60;2.38;;;;;;;;;;5063772;28;20184;-84
2022/02/06 13:35:06;;;;;;;3.88;1.60;;;;;;;;;;5062123;28;20195;-88
2022/02/06 13:37:43;;;;;;;1.80;1.58;;;;;;;;;;5033217;28;20181;-90
2022/02/06 13:40:15;;;;;;;4.05;1.70;;;;;;;;;;5063770;28;20204;-86
2022/02/06 13:42:54;;;;;;;2.83;2.10;;;;;;;;;;5051295;28;20185;-87
2022/02/06 13:45:23;;;;;;;3.17;1.55;;;;;;;;;;5042757;28;20256;-89
2022/02/06 13:47:50;;;;;;;5.70;4.28;;;;;;;;;;5047507;28;20184;-87
2022/02/06 13:50:16;;;;;;;2.88;1.65;;;;;;;;;;5074335;28;20188;-90
2022/02/06 13:52:43;;;;;;;2.90;2.30;;;;;;;;;;5028422;28;20177;-92
2022/02/06 13:55:09;;;;;;;2.38;1.40;;;;;;;;;;5046558;28;20184;-88
2022/02/06 13:57:36;;;;;;;3.10;2.10;;;;;;;;;;5046775;28;20274;-86
2022/02/06 14:00:12;;;;;;;4.10;2.03;;;;;;;;;;5062374;28;20197;-87
2022/02/06 14:02:38;;;;;;;2.95;1.60;;;;;;;;;;5043988;28;20193;-89
2022/02/06 14:05:10;;;;;;;5.80;2.58;;;;;;;;;;5043938;28;20183;-87
2022/02/06 14:07:36;;;;;;;3.22;2.03;;;;;;;;;;5054477;28;20193;-90
2022/02/06 14:12:29;;;;;;;2.85;1.77;;;;;;;;;;5058700;28;20200;-83
2022/02/06 14:14:56;;;;;;;1.83;1.25;;;;;;;;;;5043629;28;20181;-84
2022/02/06 14:17:23;;;;;;;1.70;1.50;;;;;;;;;;5056216;28;20177;-85
2022/02/06 14:19:50;;;;;;;2.60;1.10;;;;;;;;;;5032136;28;20209;-87
2022/02/06 14:22:29;;;;;;;2.03;1.30;;;;;;;;;;5052086;28;20178;-85
2022/02/06 14:24:56;;;;;;;1.75;1.40;;;;;;;;;;5056623;28;20185;-86
2022/02/06 14:27:28;;;;;;;1.48;1.38;;;;;;;;;;5050298;28;20185;-89
2022/02/06 14:29:58;;;;;;;5.05;1.85;;;;;;;;;;5052937;28;20186;-84
2022/02/06 14:32:24;;;;;;;2.00;1.63;;;;;;;;;;5045872;28;20185;-89
2022/02/06 14:34:57;;;;;;;2.63;1.50;;;;;;;;;;5058134;28;20187;-85
2022/02/06 14:37:26;;;;;;;1.67;1.30;;;;;;;;;;5052127;28;20216;-88
2022/02/06 14:40:16;;;;;;;1.33;1.20;;;;;;;;;;5063496;28;20216;-89
2022/02/06 14:42:52;;;;;;;2.97;2.67;;;;;;;;;;5041240;28;20575;-83
2022/02/06 14:45:18;;;;;;;3.45;1.17;;;;;;;;;;5042320;28;20178;-86
2022/02/06 14:47:44;;;;;;;1.77;1.53;;;;;;;;;;5042400;28;20186;-88
2022/02/06 14:50:14;;;;;;;2.03;1.50;;;;;;;;;;5058161;28;20440;-86
2022/02/06 14:52:40;;;;;;;2.47;1.20;;;;;;;;;;5043064;28;20243;-85
2022/02/06 14:55:06;;;;;;;2.85;1.10;;;;;;;;;;5039353;28;20235;-89
2022/02/06 14:57:33;;;;;;;2.50;1.38;;;;;;;;;;5039521;28;20201;-85
2022/02/06 15:00:00;;;;;;;1.95;1.30;;;;;;;;;;5047560;28;20212;-85
2022/02/06 15:02:26;;;;;;;2.05;1.40;;;;;;;;;;5043226;28;20192;-86
2022/02/06 15:04:52;;;;;;;3.72;1.55;;;;;;;;;;5059946;28;20177;-85
2022/02/06 15:07:18;;;;;;;2.67;1.25;;;;;;;;;;5044671;28;20177;-88
2022/02/06 15:09:45;;;;;;;1.50;1.40;;;;;;;;;;5042541;28;20189;-89
2022/02/06 15:12:11;;;;;;;4.25;3.05;;;;;;;;;;5042086;28;20438;-92
2022/02/06 15:14:37;;;;;;;3.60;1.48;;;;;;;;;;5046040;28;20522;-91
2022/02/06 15:17:03;;;;;;;3.22;1.30;;;;;;;;;;5042851;28;20231;-86
2022/02/06 15:19:31;;;;;;;3.20;1.40;;;;;;;;;;5043982;28;20205;-93
2022/02/06 15:21:57;;;;;;;3.08;1.90;;;;;;;;;;5057622;28;20181;-86
2022/02/06 15:24:23;;;;;;;2.28;1.45;;;;;;;;;;5043234;28;20182;-89
2022/02/06 15:26:49;;;;;;;9.40;3.65;;;;;;;;;;5062373;28;20185;-90
2022/02/06 15:29:15;;;;;;;7.83;2.43;;;;;;;;;;5038203;28;20343;-90
2022/02/06 15:31:41;;;;;;;7.15;2.90;;;;;;;;;;5041663;28;20802;-88
2022/02/06 15:34:08;;;;;;;5.38;2.53;;;;;;;;;;5040825;28;20188;-84
2022/02/06 15:36:36;;;;;;;3.85;1.42;;;;;;;;;;5053833;28;20185;-88
2022/02/06 15:39:13;;;;;;;6.03;1.90;;;;;;;;;;5056316;28;20263;-86
2022/02/06 15:41:40;;;;;;;4.15;2.40;;;;;;;;;;5045148;28;20432;-88
2022/02/06 15:44:06;;;;;;;4.68;2.30;;;;;;;;;;5060278;28;20203;-86
2022/02/06 15:46:33;;;;;;;6.97;2.53;;;;;;;;;;5065920;28;20176;-86
2022/02/06 15:48:59;;;;;;;3.95;1.52;;;;;;;;;;5048498;28;20453;-92
2022/02/06 15:51:25;;;;;;;6.57;1.80;;;;;;;;;;5051109;28;20507;-84
2022/02/06 15:53:51;;;;;;;2.80;2.00;;;;;;;;;;5060021;28;20488;-83
2022/02/06 15:56:17;;;;;;;8.63;2.05;;;;;;;;;;5076889;28;20435;-93
2022/02/06 15:58:43;;;;;;;5.60;2.30;;;;;;;;;;5045153;28;20170;-89
2022/02/06 16:01:09;;;;;;;3.92;2.55;;;;;;;;;;5038454;28;20192;-90
2022/02/06 16:03:35;;;;;;;5.38;1.40;;;;;;;;;;5041031;28;20235;-83
2022/02/06 16:06:01;;;;;;;8.40;1.90;;;;;;;;;;5058269;28;20189;-89
2022/02/06 16:08:27;;;;;;;3.30;2.97;;;;;;;;;;5043600;28;20188;-94
2022/02/06 16:10:54;;;;;;;7.32;1.90;;;;;;;;;;5044639;28;20542;-83
2022/02/06 16:13:21;;;;;;;4.90;2.17;;;;;;;;;;5043572;28;20176;-89
2022/02/06 16:15:47;;;;;;;5.55;2.00;;;;;;;;;;5044868;28;20185;-93
2022/02/06 16:18:14;;;;;;;7.88;3.55;;;;;;;;;;5046672;28;20209;-85
2022/02/06 16:20:40;;;;;;;4.20;2.40;;;;;;;;;;5056405;28;20213;-86
2022/02/06 16:23:06;;;;;;;7.30;3.03;;;;;;;;;;5045834;28;20189;-89
2022/02/06 16:25:32;;;;;;;8.90;2.90;;;;;;;;;;5065445;28;20188;-93
2022/02/06 16:27:58;;;;;;;5.47;2.20;;;;;;;;;;5046310;28;20436;-90
2022/02/06 16:30:24;;;;;;;13.53;3.87;;;;;;;;;;5036240;28;20182;-87
2022/02/06 16:32:50;;;;;;;6.70;2.87;;;;;;;;;;5060736;28;20438;-92
2022/02/06 16:35:16;;;;;;;8.52;2.92;;;;;;;;;;5060981;28;20480;-85
2022/02/06 16:37:42;;;;;;;7.90;2.80;;;;;;;;;;5046877;28;20271;-86
2022/02/06 16:40:09;;;;;;;4.15;2.90;;;;;;;;;;5041840;28;20967;-86
2022/02/06 16:42:35;;;;;;;8.02;3.50;;;;;;;;;;5045656;28;20753;-90
2022/02/06 16:45:01;;;;;;;4.38;2.90;;;;;;;;;;5044989;28;20178;-89
2022/02/06 16:47:27;;;;;;;5.88;2.17;;;;;;;;;;5046805;28;20178;-89
2022/02/06 16:49:53;;;;;;;4.90;1.67;;;;;;;;;;5044757;28;20192;-84
2022/02/06 16:52:18;;;;;;;4.90;1.23;;;;;;;;;;5048454;28;20188;-88
2022/02/06 16:54:45;;;;;;;4.15;1.67;;;;;;;;;;5046149;28;20482;-87
2022/02/06 16:57:11;;;;;;;4.03;1.52;;;;;;;;;;5057032;28;20189;-89
2022/02/06 16:59:37;;;;;;;4.90;2.73;;;;;;;;;;5050691;28;20203;-87
2022/02/06 17:02:03;;;;;;;4.82;1.60;;;;;;;;;;5047419;28;20740;-89
2022/02/06 17:04:29;;;;;;;6.35;2.28;;;;;;;;;;5064498;28;20192;-88
2022/02/06 17:06:55;;;;;;;3.37;1.60;;;;;;;;;;5070234;28;20191;-88
2022/02/06 17:09:21;;;;;;;5.03;1.50;;;;;;;;;;5022586;28;20911;-89
2022/02/06 17:11:50;;;;;;;4.47;1.88;;;;;;;;;;5037121;28;20182;-85
2022/02/06 17:14:17;;;;;;;4.25;1.58;;;;;;;;;;5038416;28;20198;-85
2022/02/06 17:16:43;;;;;;;7.40;2.40;;;;;;;;;;5024012;28;20167;-87
2022/02/06 17:19:09;;;;;;;5.65;2.55;;;;;;;;;;5036766;28;20226;-88
2022/02/06 17:21:36;;;;;;;3.30;1.60;;;;;;;;;;5023392;28;20671;-88
2022/02/06 17:24:02;;;;;;;5.15;2.90;;;;;;;;;;5037326;28;20425;-90
2022/02/06 17:26:28;;;;;;;7.05;2.03;;;;;;;;;;5045311;28;20459;-85